Time;durP1;ratioP1;P1;durP2;ratioP2;P2;SDS_P1;SDS_P2;PMS_P1;PMS_P2;Temp;Humidity;BMP_temperature;BMP_pressure;BME280_temperature;BME280_humidity;BME280_pressure;Samples;Min_cycle;Max_cycle;Signal;HPM_P1;HPM_P2
2023/09/12 00:00:12;;;;;;;5.57;1.90;;;;;;;19.64;100.00;98052.91;15271635;19;20031;-79
2023/09/12 00:05:39;;;;;;;5.82;2.05;;;;;;;19.54;100.00;98054.28;15275786;19;20010;-81
2023/09/12 00:11:06;;;;;;;5.05;2.10;;;;;;;19.46;100.00;98049.13;15279280;19;20011;-81
2023/09/12 00:16:30;;;;;;;5.05;2.10;;;;;;;19.37;100.00;98056.78;15277229;19;20067;-81
2023/09/12 00:21:57;;;;;;;6.07;2.30;;;;;;;19.28;100.00;98041.75;15278952;19;20014;-80
2023/09/12 00:27:23;;;;;;;4.57;2.20;;;;;;;19.18;100.00;98044.19;15277665;19;20018;-81
2023/09/12 00:32:49;;;;;;;5.50;2.28;;;;;;;19.08;100.00;98044.69;15267732;19;20011;-81
2023/09/12 00:38:17;;;;;;;5.03;2.30;;;;;;;19.00;100.00;98037.63;15275676;19;20371;-80
2023/09/12 00:43:42;;;;;;;5.55;2.30;;;;;;;18.93;100.00;98039.56;15293490;19;20022;-81
2023/09/12 00:49:08;;;;;;;5.35;2.40;;;;;;;18.84;100.00;98038.19;15295166;19;20054;-80
2023/09/12 00:54:37;;;;;;;5.47;2.30;;;;;;;18.79;100.00;98034.25;15294764;19;20022;-79
2023/09/12 01:00:14;;;;;;;5.65;2.17;;;;;;;18.72;100.00;98030.75;15302107;19;20022;-80
2023/09/12 01:05:41;;;;;;;4.95;2.45;;;;;;;18.69;100.00;98036.63;15297161;19;20010;-80
2023/09/12 01:11:08;;;;;;;5.95;2.38;;;;;;;18.64;100.00;98036.47;15354083;19;20018;-80
2023/09/12 01:16:34;;;;;;;7.30;2.53;;;;;;;18.61;100.00;98034.22;15282438;19;20017;-81
2023/09/12 01:22:22;;;;;;;5.95;2.50;;;;;;;18.57;100.00;98042.00;15285611;19;20085;-82
2023/09/12 01:27:51;;;;;;;6.28;2.40;;;;;;;18.51;100.00;98037.44;15283156;19;20027;-81
2023/09/12 01:33:16;;;;;;;7.38;2.50;;;;;;;18.43;100.00;98041.25;15284001;19;20039;-82
2023/09/12 01:38:41;;;;;;;5.78;2.50;;;;;;;18.39;100.00;98033.75;15282634;19;20027;-82
2023/09/12 01:44:11;;;;;;;6.95;2.30;;;;;;;18.32;100.00;98044.69;15286628;19;20014;-80
2023/09/12 01:49:38;;;;;;;7.07;2.58;;;;;;;18.25;100.00;98036.56;15287945;19;20014;-78
2023/09/12 01:55:11;;;;;;;5.30;2.28;;;;;;;18.20;100.00;98032.81;15282497;19;20014;-80
2023/09/12 02:00:40;;;;;;;5.00;2.47;;;;;;;18.13;100.00;98030.16;15285070;19;20014;-80
2023/09/12 02:06:06;;;;;;;5.55;2.50;;;;;;;18.06;100.00;98027.47;15278649;19;20034;-79
2023/09/12 02:11:31;;;;;;;6.85;2.53;;;;;;;18.02;100.00;98034.44;15285034;19;20015;-82
2023/09/12 02:16:59;;;;;;;7.00;2.40;;;;;;;17.97;100.00;98026.06;15285318;19;20709;-81
2023/09/12 02:22:24;;;;;;;5.78;2.42;;;;;;;17.93;100.00;98025.63;15285138;19;20094;-81
2023/09/12 02:27:48;;;;;;;6.80;2.42;;;;;;;17.88;100.00;98030.88;15280687;19;20015;-82
2023/09/12 02:33:15;;;;;;;8.20;2.30;;;;;;;17.83;100.00;98020.66;15286213;19;20025;-83
2023/09/12 02:38:41;;;;;;;7.28;2.35;;;;;;;17.78;100.00;98023.22;15278481;19;20022;-81
2023/09/12 02:44:06;;;;;;;5.50;2.60;;;;;;;17.71;100.00;98028.69;15281360;19;20018;-81
2023/09/12 02:49:34;;;;;;;5.40;2.30;;;;;;;17.66;100.00;98016.78;15287038;19;20018;-82
2023/09/12 02:54:59;;;;;;;5.78;2.63;;;;;;;17.63;100.00;98009.03;15285689;19;20104;-81
2023/09/12 03:00:24;;;;;;;6.80;2.83;;;;;;;17.62;100.00;98019.09;15285039;19;20018;-81
2023/09/12 03:05:52;;;;;;;5.43;2.58;;;;;;;17.60;100.00;98020.34;15282873;19;20014;-84
2023/09/12 03:11:17;;;;;;;5.18;2.50;;;;;;;17.58;100.00;98022.47;15283153;19;20025;-79
2023/09/12 03:16:42;;;;;;;6.07;2.47;;;;;;;17.53;100.00;98029.41;15276539;19;20010;-81
2023/09/12 03:22:11;;;;;;;5.88;2.67;;;;;;;17.52;100.00;98019.56;15283815;19;20051;-78
2023/09/12 03:27:35;;;;;;;5.00;2.30;;;;;;;17.45;100.00;98012.47;15277287;19;20375;-80
2023/09/12 03:33:00;;;;;;;6.97;2.70;;;;;;;17.39;100.00;98015.00;15289794;19;20027;-81
2023/09/12 03:38:27;;;;;;;7.10;2.70;;;;;;;17.35;100.00;98018.34;15285911;19;20021;-83
2023/09/12 03:43:52;;;;;;;6.10;2.65;;;;;;;17.28;100.00;98012.97;15282710;19;20014;-80
2023/09/12 03:49:19;;;;;;;4.78;2.45;;;;;;;17.20;100.00;98018.63;15281967;19;20474;-78
2023/09/12 03:54:46;;;;;;;6.25;2.67;;;;;;;17.16;100.00;98009.22;15276281;19;20011;-79
2023/09/12 04:00:16;;;;;;;5.45;2.50;;;;;;;17.08;100.00;98010.28;15278449;19;20014;-76
2023/09/12 04:05:41;;;;;;;5.22;2.38;;;;;;;17.02;100.00;98014.69;15269102;19;20033;-78
2023/09/12 04:11:08;;;;;;;5.03;2.45;;;;;;;16.97;100.00;98010.94;15277098;19;20481;-78
2023/09/12 04:16:33;;;;;;;8.00;2.92;;;;;;;16.94;100.00;98021.22;15274163;19;20015;-79
2023/09/12 04:21:59;;;;;;;6.47;2.85;;;;;;;16.88;100.00;98018.47;15294886;19;20022;-79
2023/09/12 04:27:27;;;;;;;7.70;2.72;;;;;;;16.87;100.00;98019.50;15283369;19;20475;-78
2023/09/12 04:32:52;;;;;;;8.32;2.83;;;;;;;16.84;100.00;98012.63;15292166;19;20015;-77
2023/09/12 04:38:17;;;;;;;7.07;2.70;;;;;;;16.83;100.00;98015.53;15289824;19;20058;-79
2023/09/12 04:43:46;;;;;;;6.63;2.97;;;;;;;16.81;100.00;98007.59;15297545;19;20014;-79
2023/09/12 04:49:12;;;;;;;6.88;2.55;;;;;;;16.77;100.00;98018.06;15286222;19;20011;-78
2023/09/12 04:54:36;;;;;;;9.38;2.90;;;;;;;16.74;100.00;98023.91;15300362;19;20018;-79
2023/09/12 05:00:04;;;;;;;7.65;2.70;;;;;;;16.73;100.00;98021.41;15305784;19;20527;-78
2023/09/12 05:05:29;;;;;;;12.00;2.90;;;;;;;16.70;100.00;98013.69;15337068;19;20002;-79
2023/09/12 05:10:54;;;;;;;6.10;2.88;;;;;;;16.73;100.00;98021.41;15312287;19;20425;-83
2023/09/12 05:16:24;;;;;;;6.88;2.60;;;;;;;16.74;100.00;98032.06;15283488;19;20042;-85
2023/09/12 05:21:49;;;;;;;8.00;2.47;;;;;;;16.76;100.00;98043.59;15274837;19;20319;-83
2023/09/12 05:27:14;;;;;;;6.20;2.63;;;;;;;16.76;100.00;98050.91;15278244;19;20035;-82
2023/09/12 05:32:41;;;;;;;5.90;2.65;;;;;;;16.77;100.00;98060.72;15284667;19;20018;-83
2023/09/12 05:38:07;;;;;;;7.63;2.70;;;;;;;16.79;100.00;98058.66;15275628;19;20726;-82
2023/09/12 05:43:33;;;;;;;6.60;2.83;;;;;;;16.84;100.00;98067.03;15282538;19;20019;-83
2023/09/12 05:49:00;;;;;;;6.05;2.65;;;;;;;16.87;100.00;98063.03;15285887;19;20368;-81
2023/09/12 05:54:25;;;;;;;5.85;2.70;;;;;;;16.91;100.00;98073.28;15272047;19;20066;-84
2023/09/12 05:59:51;;;;;;;6.82;2.85;;;;;;;16.96;100.00;98066.41;15283381;19;20035;-81
2023/09/12 06:05:24;;;;;;;4.65;2.90;;;;;;;17.03;100.00;98076.25;15284073;19;20031;-82
2023/09/12 06:10:53;;;;;;;6.18;2.50;;;;;;;17.06;100.00;98086.69;15285477;19;20014;-84
2023/09/12 06:16:18;;;;;;;7.20;2.70;;;;;;;17.15;100.00;98091.94;15272670;19;20372;-52
2023/09/12 06:21:45;;;;;;;6.32;2.90;;;;;;;17.21;100.00;98091.06;15276761;19;20021;-54
2023/09/12 06:27:12;;;;;;;6.72;2.80;;;;;;;17.29;100.00;98093.56;15262366;19;20533;-50
2023/09/12 06:32:36;;;;;;;7.32;2.85;;;;;;;17.35;100.00;98100.03;15276505;19;20130;-52
2023/09/12 06:38:04;;;;;;;6.10;2.92;;;;;;;17.44;100.00;98098.78;15269711;19;20022;-49
2023/09/12 06:43:28;;;;;;;9.70;2.65;;;;;;;17.51;100.00;98096.03;15275673;19;20028;-50
2023/09/12 06:48:53;;;;;;;6.68;2.78;;;;;;;17.63;100.00;98090.75;15274502;19;20033;-51
2023/09/12 06:54:20;;;;;;;8.27;3.05;;;;;;;17.75;100.00;98094.47;15274540;19;20018;-51
2023/09/12 06:59:45;;;;;;;10.55;3.10;;;;;;;17.89;100.00;98078.06;15260606;19;20022;-49
2023/09/12 07:05:09;;;;;;;11.82;3.15;;;;;;;17.99;100.00;98076.56;15273484;19;20018;-51
2023/09/12 07:10:37;;;;;;;11.60;2.97;;;;;;;18.16;100.00;98071.47;15276763;19;20013;-51
2023/09/12 07:16:10;;;;;;;10.63;2.78;;;;;;;18.31;100.00;98075.75;15268144;19;20018;-50
2023/09/12 07:21:35;;;;;;;10.38;2.85;;;;;;;18.51;100.00;98086.53;15273314;19;20023;-52
2023/09/12 07:27:03;;;;;;;9.75;2.80;;;;;;;18.68;100.00;98075.91;15270317;19;20035;-50
2023/09/12 07:32:28;;;;;;;9.13;2.72;;;;;;;18.85;100.00;98078.91;15263262;19;20737;-54
2023/09/12 07:37:52;;;;;;;5.68;2.45;;;;;;;19.04;100.00;98085.28;15266113;19;20018;-52
2023/09/12 07:43:19;;;;;;;7.75;2.80;;;;;;;19.29;100.00;98075.34;15270043;19;20021;-55
2023/09/12 07:48:44;;;;;;;9.40;2.90;;;;;;;19.51;100.00;98068.41;15257963;19;20019;-48
2023/09/12 07:54:09;;;;;;;12.55;2.55;;;;;;;19.81;100.00;98064.06;15269426;19;20021;-51
2023/09/12 07:59:37;;;;;;;7.20;2.70;;;;;;;20.09;100.00;98063.50;15266910;19;20022;-53
2023/09/12 08:05:02;;;;;;;8.50;2.80;;;;;;;20.30;100.00;98069.50;15262901;19;20031;-55
2023/09/12 08:10:27;;;;;;;5.65;2.60;;;;;;;20.56;100.00;98086.59;15270130;19;20035;-57
2023/09/12 08:15:54;;;;;;;9.10;2.75;;;;;;;20.80;100.00;98087.47;15265024;19;20070;-55
2023/09/12 08:21:20;;;;;;;8.88;2.53;;;;;;;21.03;100.00;98094.03;15270457;19;20473;-51
2023/09/12 08:26:45;;;;;;;6.95;2.70;;;;;;;21.30;100.00;98099.88;15265863;19;20019;-52
2023/09/12 08:32:12;;;;;;;6.32;2.60;;;;;;;21.49;100.00;98086.06;15269080;19;20018;-55
2023/09/12 08:37:37;;;;;;;5.00;2.15;;;;;;;21.65;100.00;98085.31;15257830;19;20033;-52
2023/09/12 08:43:03;;;;;;;6.75;2.42;;;;;;;21.80;100.00;98084.84;15267655;19;20010;-52
2023/09/12 08:48:31;;;;;;;5.13;2.30;;;;;;;22.01;100.00;98096.22;15263793;19;20131;-54
2023/09/12 08:53:56;;;;;;;11.18;2.65;;;;;;;22.25;100.00;98093.38;15266707;19;20503;-53
2023/09/12 08:59:24;;;;;;;9.55;2.50;;;;;;;22.46;100.00;98100.09;15263054;19;20482;-54
2023/09/12 09:04:52;;;;;;;9.90;2.47;;;;;;;22.72;100.00;98100.53;15271959;19;20017;-53
2023/09/12 09:10:18;;;;;;;7.30;2.25;;;;;;;23.13;100.00;98103.97;15276307;19;20946;-52
2023/09/12 09:16:21;;;;;;;11.43;2.42;;;;;;;23.43;100.00;98102.75;15275295;19;20623;-55
2023/09/12 09:21:50;;;;;;;9.05;2.50;;;;;;;23.76;100.00;98108.44;15277291;19;20015;-53
2023/09/12 09:27:15;;;;;;;7.50;2.28;;;;;;;24.10;100.00;98094.56;15273019;19;20101;-53
2023/09/12 09:32:40;;;;;;;11.23;2.17;;;;;;;24.36;100.00;98092.09;15279606;19;20014;-53
2023/09/12 09:38:08;;;;;;;11.80;2.65;;;;;;;24.59;100.00;98086.25;15263251;19;20031;-55
2023/09/12 09:43:34;;;;;;;11.43;2.40;;;;;;;24.74;100.00;98073.75;15274331;19;20035;-54
2023/09/12 09:49:00;;;;;;;9.75;3.00;;;;;;;24.90;100.00;98077.47;15274320;19;20434;-53
2023/09/12 09:54:29;;;;;;;9.80;2.30;;;;;;;25.01;100.00;98072.84;15275370;19;20015;-53
2023/09/12 09:59:57;;;;;;;8.38;2.35;;;;;;;25.08;100.00;98079.78;15278257;19;20043;-56
2023/09/12 10:05:24;;;;;;;10.82;2.50;;;;;;;25.22;100.00;98088.47;15275964;19;20259;-54
2023/09/12 10:10:52;;;;;;;7.28;2.42;;;;;;;25.21;100.00;98075.75;15269798;19;20023;-55
2023/09/12 10:16:25;;;;;;;8.50;2.65;;;;;;;25.20;100.00;98074.09;15267469;19;20018;-54
2023/09/12 10:21:56;;;;;;;11.02;2.53;;;;;;;25.22;100.00;98087.59;15275762;19;20015;-55
2023/09/12 10:27:25;;;;;;;8.73;2.80;;;;;;;25.24;100.00;98097.25;15273464;19;20486;-57
2023/09/12 10:32:51;;;;;;;11.15;2.70;;;;;;;25.26;100.00;98071.34;15277110;19;20011;-51
2023/09/12 10:38:17;;;;;;;8.38;2.50;;;;;;;25.38;100.00;98074.75;15274086;19;20041;-56
2023/09/12 10:43:47;;;;;;;9.50;2.70;;;;;;;25.44;100.00;98062.69;15270908;19;20022;-57
2023/09/12 10:49:15;;;;;;;8.83;2.77;;;;;;;25.62;100.00;98044.00;15273555;19;20018;-55
2023/09/12 10:54:43;;;;;;;9.20;2.90;;;;;;;25.79;100.00;98069.47;15274578;19;20026;-56
2023/09/12 11:00:17;;;;;;;9.75;2.70;;;;;;;25.79;100.00;98063.97;15275044;19;20016;-53
2023/09/12 11:05:45;;;;;;;7.60;2.70;;;;;;;25.99;100.00;98057.66;15268683;19;20024;-54
2023/09/12 11:11:21;;;;;;;9.25;2.67;;;;;;;26.11;100.00;98057.47;15267317;19;20018;-54
2023/09/12 11:17:29;;;;;;;11.25;2.78;;;;;;;26.30;100.00;98054.16;15253066;19;20070;-54
2023/09/12 11:23:01;;;;;;;11.18;2.75;;;;;;;26.54;100.00;98050.88;15271142;19;20018;-51
2023/09/12 11:28:32;;;;;;;7.20;2.67;;;;;;;26.75;100.00;98033.19;15264592;19;20035;-53
2023/09/12 11:33:59;;;;;;;9.23;2.30;;;;;;;26.95;100.00;98030.72;15271747;19;20011;-55
2023/09/12 11:39:28;;;;;;;9.32;2.05;;;;;;;27.30;100.00;98024.31;15270901;19;20025;-53
2023/09/12 11:44:54;;;;;;;8.25;2.40;;;;;;;27.49;100.00;98032.00;15270365;19;20018;-54
2023/09/12 11:50:32;;;;;;;12.32;2.30;;;;;;;27.73;100.00;98045.22;15258755;19;20018;-56
2023/09/12 11:55:59;;;;;;;9.27;2.30;;;;;;;27.96;100.00;98039.00;15269296;19;20011;-56
2023/09/12 12:01:24;;;;;;;8.15;2.30;;;;;;;28.06;100.00;98040.06;15264939;19;20043;-54
2023/09/12 12:06:51;;;;;;;13.40;2.53;;;;;;;28.14;100.00;98047.81;15266368;19;20835;-53
2023/09/12 12:12:17;;;;;;;11.40;2.40;;;;;;;28.04;100.00;98051.44;15269594;19;20019;-52
2023/09/12 12:17:41;;;;;;;11.18;2.45;;;;;;;28.06;100.00;98056.66;15261713;19;20078;-53
2023/09/12 12:23:09;;;;;;;10.95;2.45;;;;;;;27.91;100.00;98044.59;15266926;19;20020;-49
2023/09/12 12:28:33;;;;;;;10.75;2.50;;;;;;;28.07;100.00;98047.25;15264913;19;20022;-52
2023/09/12 12:34:00;;;;;;;5.28;2.00;;;;;;;28.20;100.00;98052.19;15266373;19;20598;-53
2023/09/12 12:39:51;;;;;;;7.68;2.17;;;;;;;28.20;100.00;98027.25;15281525;19;20474;-50
2023/09/12 12:45:18;;;;;;;6.05;2.40;;;;;;;28.18;100.00;98031.44;15280517;19;20045;-56
2023/09/12 12:50:44;;;;;;;8.73;2.20;;;;;;;28.38;100.00;98033.25;15277208;19;20011;-51
2023/09/12 12:56:15;;;;;;;6.75;2.25;;;;;;;28.47;100.00;98017.66;15272762;19;20074;-53
2023/09/12 13:01:41;;;;;;;6.60;2.20;;;;;;;28.41;96.89;98024.34;15278566;19;20022;-56
2023/09/12 13:07:12;;;;;;;11.43;2.55;;;;;;;28.56;98.13;97993.75;15272760;19;20010;-55
2023/09/12 13:12:40;;;;;;;9.73;2.40;;;;;;;28.69;94.28;97996.97;15279699;19;20023;-52
2023/09/12 13:18:12;;;;;;;10.00;2.70;;;;;;;28.95;94.94;97994.00;15270090;19;20348;-53
2023/09/12 13:23:39;;;;;;;4.70;2.33;;;;;;;28.88;98.46;97999.88;15272065;19;20042;-55
2023/09/12 13:29:07;;;;;;;9.88;2.30;;;;;;;29.12;95.65;97986.03;15267192;19;20014;-52
2023/09/12 13:34:32;;;;;;;8.70;2.45;;;;;;;29.33;95.32;97981.13;15276958;19;20098;-54
2023/09/12 13:39:58;;;;;;;11.63;2.63;;;;;;;29.42;92.24;97974.91;15276372;19;20025;-57
2023/09/12 13:45:26;;;;;;;9.45;2.30;;;;;;;29.57;91.51;97971.13;15277342;19;20041;-52
2023/09/12 13:50:51;;;;;;;7.10;2.00;;;;;;;29.79;88.37;97965.81;15271007;19;20018;-55
2023/09/12 13:56:16;;;;;;;7.85;2.30;;;;;;;29.89;91.79;97955.69;15267858;19;20030;-49
2023/09/12 14:01:45;;;;;;;11.75;2.60;;;;;;;30.03;85.40;97951.06;15270049;19;20023;-58
2023/09/12 14:07:11;;;;;;;7.32;2.15;;;;;;;30.30;80.09;97955.06;15273234;19;20459;-50
2023/09/12 14:12:35;;;;;;;9.05;2.20;;;;;;;30.50;79.39;97955.88;15275475;19;20011;-52
2023/09/12 14:18:11;;;;;;;6.65;2.17;;;;;;;30.48;77.42;97952.56;15269311;19;20055;-53
2023/09/12 14:23:37;;;;;;;11.60;2.20;;;;;;;30.50;73.89;97953.09;15276399;19;20046;-53
2023/09/12 14:29:02;;;;;;;7.03;2.15;;;;;;;30.36;74.44;97959.44;15265125;19;20026;-50
2023/09/12 14:34:32;;;;;;;8.00;2.20;;;;;;;30.34;72.63;97955.31;15271997;19;20101;-52
2023/09/12 14:39:57;;;;;;;11.18;2.05;;;;;;;30.42;72.89;97955.41;15273401;19;20031;-50
2023/09/12 14:45:23;;;;;;;6.28;1.95;;;;;;;30.53;70.27;97947.78;15271547;19;20024;-51
2023/09/12 14:50:51;;;;;;;8.57;2.35;;;;;;;30.49;69.63;97948.66;15268675;19;20496;-54
2023/09/12 14:56:16;;;;;;;9.38;2.20;;;;;;;30.39;69.30;97949.66;15264982;19;20014;-55
2023/09/12 15:01:40;;;;;;;7.57;2.00;;;;;;;30.35;70.03;97945.81;15260408;19;20018;-55
2023/09/12 15:07:08;;;;;;;5.93;1.83;;;;;;;30.29;69.06;97934.81;15264786;19;20032;-55
2023/09/12 15:12:33;;;;;;;10.50;2.10;;;;;;;30.16;69.12;97943.09;15268882;19;20352;-53
2023/09/12 15:18:00;;;;;;;11.73;2.10;;;;;;;30.16;68.96;97934.75;15264017;19;20014;-53
2023/09/12 15:23:28;;;;;;;9.60;2.08;;;;;;;30.17;69.42;97939.16;15263344;19;20098;-56
2023/09/12 15:28:53;;;;;;;12.05;2.10;;;;;;;30.03;68.77;97939.13;15267362;19;20570;-52
2023/09/12 15:34:20;;;;;;;6.00;1.88;;;;;;;29.91;70.43;97931.22;15257946;19;20019;-54
2023/09/12 15:39:48;;;;;;;13.15;2.30;;;;;;;29.89;70.52;97916.81;15267423;19;20017;-53
2023/09/12 15:45:16;;;;;;;9.38;2.40;;;;;;;29.92;70.46;97913.44;15262427;19;20014;-54
2023/09/12 15:50:41;;;;;;;13.30;2.50;;;;;;;29.82;68.99;97918.00;15270123;19;20018;-54
2023/09/12 15:56:09;;;;;;;11.98;2.05;;;;;;;29.68;70.20;97901.28;15271230;19;20465;-53
2023/09/12 16:01:33;;;;;;;9.60;2.40;;;;;;;29.56;71.09;97900.09;15268257;19;20102;-52
2023/09/12 16:06:58;;;;;;;9.40;2.20;;;;;;;29.49;71.48;97898.50;15245556;19;20025;-54
2023/09/12 16:12:26;;;;;;;8.52;2.17;;;;;;;29.34;70.94;97895.94;15274191;19;20358;-52
2023/09/12 16:17:52;;;;;;;9.07;2.50;;;;;;;29.38;72.04;97899.75;15275965;19;20335;-54
2023/09/12 16:23:16;;;;;;;13.23;2.28;;;;;;;29.35;71.84;97903.97;15281845;19;20548;-54
2023/09/12 16:28:43;;;;;;;14.02;2.70;;;;;;;29.20;72.93;97898.56;15280602;19;20709;-51
2023/09/12 16:34:09;;;;;;;12.10;2.40;;;;;;;29.02;73.24;97898.25;15275653;19;20021;-53
2023/09/12 16:39:34;;;;;;;9.30;2.20;;;;;;;28.81;75.90;97897.66;15271307;19;20024;-52
2023/09/12 16:45:04;;;;;;;7.97;2.20;;;;;;;28.60;77.56;97900.63;15275770;19;20070;-53
2023/09/12 16:50:29;;;;;;;7.50;2.38;;;;;;;28.38;79.97;97892.78;15273138;19;20651;-54
2023/09/12 16:55:57;;;;;;;7.53;2.45;;;;;;;28.18;82.46;97896.56;15276746;19;20022;-50
2023/09/12 17:01:25;;;;;;;6.60;2.30;;;;;;;28.05;84.72;97888.91;15276962;19;20021;-54
2023/09/12 17:06:50;;;;;;;12.15;2.30;;;;;;;27.88;87.58;97886.50;15272740;19;20019;-55
2023/09/12 17:12:17;;;;;;;18.38;2.40;;;;;;;27.59;91.57;97878.97;15269409;19;20085;-54
2023/09/12 17:17:51;;;;;;;17.02;2.42;;;;;;;27.30;95.80;97876.88;15274571;19;20026;-52
2023/09/12 17:23:15;;;;;;;14.82;2.70;;;;;;;26.98;99.73;97876.22;15279642;19;20425;-53
2023/09/12 17:28:40;;;;;;;11.93;2.70;;;;;;;26.69;100.00;97870.50;15275410;19;20531;-54
2023/09/12 17:34:08;;;;;;;7.55;2.10;;;;;;;26.40;100.00;97874.66;15277905;19;20025;-51
2023/09/12 17:39:33;;;;;;;11.88;3.00;;;;;;;26.14;100.00;97894.03;15277435;19;20010;-49
2023/09/12 17:44:58;;;;;;;10.95;2.63;;;;;;;25.93;100.00;97887.66;15266307;19;20022;-49
2023/09/12 17:50:26;;;;;;;10.65;2.40;;;;;;;25.77;100.00;97895.09;15270412;19;20024;-47
2023/09/12 17:55:52;;;;;;;5.93;2.33;;;;;;;25.67;100.00;97903.34;14757745;19;10000494;-53
2023/09/12 18:01:18;;;;;;;9.68;2.10;;;;;;;25.54;100.00;97902.78;15272246;19;20027;-53
2023/09/12 18:06:46;;;;;;;7.57;2.30;;;;;;;25.45;100.00;97900.81;15271067;19;20497;-51
2023/09/12 18:12:12;;;;;;;10.07;2.50;;;;;;;25.35;100.00;97898.81;15267385;19;20049;-51
2023/09/12 18:17:38;;;;;;;7.72;2.58;;;;;;;25.24;100.00;97904.28;15265943;19;20030;-51
2023/09/12 18:23:08;;;;;;;7.13;2.30;;;;;;;25.12;100.00;97902.88;15274736;19;20010;-48
2023/09/12 18:28:42;;;;;;;9.57;2.45;;;;;;;24.93;100.00;97906.94;15270881;19;20014;-51
2023/09/12 18:34:07;;;;;;;8.82;2.40;;;;;;;24.71;100.00;97907.06;15271246;19;20372;-48
2023/09/12 18:39:34;;;;;;;7.05;2.50;;;;;;;24.49;100.00;97920.97;15268502;19;20015;-50
2023/09/12 18:45:00;;;;;;;10.30;2.85;;;;;;;24.36;100.00;97940.69;15266935;19;20042;-48
2023/09/12 18:50:25;;;;;;;8.85;2.75;;;;;;;24.25;100.00;97948.84;15264964;19;20031;-52
2023/09/12 18:55:53;;;;;;;10.85;2.63;;;;;;;24.15;100.00;97948.78;15270734;19;20025;-50
2023/09/12 19:01:17;;;;;;;6.60;2.35;;;;;;;24.01;100.00;97937.34;15270797;19;20018;-49
2023/09/12 19:06:42;;;;;;;6.95;2.22;;;;;;;23.86;100.00;97951.75;15267724;19;20021;-53
2023/09/12 19:12:10;;;;;;;4.68;2.08;;;;;;;23.68;100.00;97945.56;15269528;19;20014;-51
2023/09/12 19:17:37;;;;;;;9.20;2.58;;;;;;;23.48;100.00;97945.31;15258277;19;20019;-50
2023/09/12 19:23:03;;;;;;;5.38;2.28;;;;;;;23.30;100.00;97944.56;15266235;19;20018;-48
2023/09/12 19:28:31;;;;;;;9.07;3.08;;;;;;;23.12;100.00;97933.84;15268650;19;20450;-47
2023/09/12 19:33:56;;;;;;;8.10;2.80;;;;;;;22.96;100.00;97944.66;15270137;19;20014;-47
2023/09/12 19:39:22;;;;;;;7.60;2.45;;;;;;;22.81;100.00;97936.19;15275260;19;20018;-54
2023/09/12 19:44:49;;;;;;;6.28;2.60;;;;;;;22.68;100.00;97940.13;15274943;19;20081;-47
2023/09/12 19:50:16;;;;;;;11.20;2.63;;;;;;;22.52;100.00;97941.81;15259335;19;20757;-47
2023/09/12 19:55:41;;;;;;;8.35;2.75;;;;;;;22.41;100.00;97938.06;15266443;19;20022;-50
2023/09/12 20:01:09;;;;;;;6.80;2.55;;;;;;;22.32;100.00;97930.25;15270522;19;20038;-47
2023/09/12 20:06:33;;;;;;;10.35;2.70;;;;;;;22.19;100.00;97930.56;15267684;19;20503;-49
2023/09/12 20:11:59;;;;;;;9.52;2.88;;;;;;;22.09;100.00;97931.22;15271869;19;20019;-50
2023/09/12 20:17:27;;;;;;;7.75;2.80;;;;;;;22.04;100.00;97928.41;15266196;19;20370;-51
2023/09/12 20:22:53;;;;;;;9.27;2.85;;;;;;;21.96;100.00;97909.59;15263923;19;20025;-50
2023/09/12 20:28:19;;;;;;;9.48;3.13;;;;;;;21.83;100.00;97924.47;15263793;19;20810;-48
2023/09/12 20:33:47;;;;;;;8.07;2.70;;;;;;;21.70;100.00;97925.59;15247149;19;20013;-48
2023/09/12 20:39:34;;;;;;;10.90;2.80;;;;;;;21.61;100.00;97929.81;15271733;19;20014;-48
2023/09/12 20:44:58;;;;;;;12.80;3.10;;;;;;;21.51;100.00;97950.44;15269371;19;20018;-49
2023/09/12 20:50:28;;;;;;;8.65;2.50;;;;;;;21.45;100.00;97931.41;15263767;19;20021;-48
2023/09/12 20:55:54;;;;;;;7.38;2.67;;;;;;;21.40;100.00;97923.91;15259049;19;20015;-48
2023/09/12 21:01:18;;;;;;;7.25;2.88;;;;;;;21.43;100.00;97912.47;15277194;19;20365;-48
2023/09/12 21:06:46;;;;;;;7.35;2.45;;;;;;;21.39;100.00;97894.84;15280143;19;20014;-50
2023/09/12 21:12:18;;;;;;;8.20;3.00;;;;;;;21.36;100.00;97901.66;15277224;19;20021;-48
2023/09/12 21:17:50;;;;;;;12.30;2.85;;;;;;;21.31;100.00;97908.94;15279193;19;20027;-49
2023/09/12 21:23:18;;;;;;;8.45;3.15;;;;;;;21.23;100.00;97908.22;15283495;19;20018;-49
2023/09/12 21:28:43;;;;;;;7.47;3.10;;;;;;;21.14;100.00;97900.66;15276628;19;20014;-47
2023/09/12 21:34:09;;;;;;;11.68;2.95;;;;;;;21.10;100.00;97897.59;15284522;19;20010;-48
2023/09/12 21:39:37;;;;;;;8.43;2.67;;;;;;;21.04;100.00;97898.53;15280163;19;20021;-47
2023/09/12 21:45:02;;;;;;;11.10;3.10;;;;;;;20.93;100.00;97909.28;15278030;19;20081;-51
2023/09/12 21:50:28;;;;;;;10.02;3.22;;;;;;;20.89;100.00;97893.56;15278456;19;20010;-48
2023/09/12 21:55:56;;;;;;;8.23;2.75;;;;;;;20.92;100.00;97884.88;15278388;19;20019;-48
2023/09/12 22:01:21;;;;;;;12.95;3.80;;;;;;;20.89;100.00;97871.69;15268678;19;20016;-52
2023/09/12 22:06:46;;;;;;;11.40;3.42;;;;;;;20.85;100.00;97885.03;15274419;19;20024;-50
2023/09/12 22:12:15;;;;;;;13.60;3.90;;;;;;;20.71;100.00;97865.25;15273123;19;20020;-47
2023/09/12 22:17:40;;;;;;;12.05;4.20;;;;;;;20.67;100.00;97864.06;15276650;19;20022;-47
2023/09/12 22:23:04;;;;;;;7.05;3.25;;;;;;;20.60;100.00;97877.03;15283451;19;20018;-47
2023/09/12 22:28:32;;;;;;;10.65;3.67;;;;;;;20.62;100.00;97892.16;15276302;19;20022;-51
2023/09/12 22:33:57;;;;;;;7.97;3.38;;;;;;;20.55;100.00;97893.38;15267223;19;20015;-47
2023/09/12 22:39:22;;;;;;;7.82;3.50;;;;;;;20.51;100.00;97890.28;15276865;19;20025;-47
2023/09/12 22:44:50;;;;;;;7.45;3.55;;;;;;;20.40;100.00;97877.44;15275721;19;20077;-48
2023/09/12 22:50:15;;;;;;;8.73;3.60;;;;;;;20.36;100.00;97952.84;15275798;19;20007;-47
2023/09/12 22:55:39;;;;;;;20.13;2.75;;;;;;;19.82;100.00;98139.50;15273827;19;20024;-57
2023/09/12 23:01:07;;;;;;;6.22;1.35;;;;;;;19.08;100.00;98108.34;15277730;19;20662;-55
2023/09/12 23:06:32;;;;;;;11.65;2.40;;;;;;;18.08;100.00;98088.03;15273701;19;20006;-51
2023/09/12 23:12:34;;;;;;;32.70;3.67;;;;;;;16.82;100.00;98188.81;15270217;19;20024;-51
2023/09/12 23:18:02;;;;;;;2.70;1.20;;;;;;;16.82;100.00;98158.91;15275970;19;20359;-51
2023/09/12 23:23:28;;;;;;;2.53;1.08;;;;;;;16.94;100.00;98119.16;15269601;19;20006;-53
2023/09/12 23:28:53;;;;;;;1.58;0.95;;;;;;;16.91;100.00;98130.44;15277347;19;20018;-56
2023/09/12 23:34:20;;;;;;;1.30;0.93;;;;;;;17.07;100.00;98068.50;15270499;19;20018;-56
2023/09/12 23:39:45;;;;;;;4.32;1.10;;;;;;;17.05;100.00;98052.34;15278030;19;20365;-57
2023/09/12 23:45:13;;;;;;;2.60;1.10;;;;;;;17.27;100.00;98000.41;15269186;19;20010;-58
2023/09/12 23:50:42;;;;;;;2.78;1.00;;;;;;;17.24;100.00;98007.09;15276803;19;20014;-56
2023/09/12 23:56:07;;;;;;;3.47;1.60;;;;;;;17.07;100.00;98044.00;15272076;19;20545;-53
